Time;durP1;ratioP1;P1;durP2;ratioP2;P2;SDS_P1;SDS_P2;PMS_P1;PMS_P2;Temp;Humidity;BMP_temperature;BMP_pressure;BME280_temperature;BME280_humidity;BME280_pressure;Samples;Min_cycle;Max_cycle;Signal;HPM_P1;HPM_P2
2022/08/20 00:00:04;;;;;;;;;;;31.00;52.90;;;;;;859763;23;817;-84
2022/08/20 00:00:26;;;;;;;;;;;31.00;52.80;;;;;;858865;23;1620;-84
2022/08/20 00:00:48;;;;;;;;;;;31.00;52.80;;;;;;859917;23;947;-84
2022/08/20 00:01:08;;;;;;;;;;;31.10;52.90;;;;;;859846;23;983;-85
2022/08/20 00:01:29;;;;;;;;;;;31.10;52.80;;;;;;859399;23;1046;-85
2022/08/20 00:01:50;;;;;;;;;;;;;;;;;;858875;23;773;-83
2022/08/20 00:02:11;;;;;;;;;;;31.10;52.70;;;;;;860328;23;970;-84
2022/08/20 00:02:38;;;;;;;;;;;31.10;52.90;;;;;;860247;23;999;-85
2022/08/20 00:03:01;;;;;;;;;;;31.10;52.80;;;;;;859577;23;785;-84
2022/08/20 00:03:22;;;;;;;;;;;;;;;;;;857663;23;832;-84
2022/08/20 00:03:42;;;;;;;;;;;31.10;52.80;;;;;;858115;23;813;-84
2022/08/20 00:04:03;;;;;;;;;;;31.10;52.80;;;;;;857733;23;583;-84
2022/08/20 00:04:24;;;;;;;;;;;31.10;52.80;;;;;;858106;23;828;-85
2022/08/20 00:04:44;;;;;;;;;;;31.10;52.80;;;;;;857908;23;873;-84
2022/08/20 00:05:05;;;;;;;;;;;31.10;52.70;;;;;;858010;23;703;-84
2022/08/20 00:05:28;;;;;;;;;;;31.10;52.70;;;;;;857445;23;1150;-84
2022/08/20 00:05:53;;;;;;;;;;;31.10;52.70;;;;;;857080;23;939;-84
2022/08/20 00:06:16;;;;;;;;;;;31.10;52.70;;;;;;857270;23;832;-84
2022/08/20 00:06:37;;;;;;;;;;;31.10;52.60;;;;;;858346;23;979;-85
2022/08/20 00:06:58;;;;;;;;;;;31.00;52.60;;;;;;857754;23;915;-83
2022/08/20 00:07:19;;;;;;;;;;;31.10;52.80;;;;;;857288;23;1293;-83
2022/08/20 00:07:39;;;;;;;;;;;31.10;52.70;;;;;;857856;23;778;-83
2022/08/20 00:08:00;;;;;;;;;;;;;;;;;;858078;23;963;-83
2022/08/20 00:08:21;;;;;;;;;;;31.10;52.70;;;;;;858803;23;812;-84
2022/08/20 00:08:42;;;;;;;;;;;;;;;;;;859293;23;821;-84
2022/08/20 00:09:02;;;;;;;;;;;31.10;52.60;;;;;;858508;23;806;-83
2022/08/20 00:09:23;;;;;;;;;;;31.10;52.80;;;;;;858705;23;1035;-84
2022/08/20 00:09:44;;;;;;;;;;;31.10;52.80;;;;;;857878;23;912;-84
2022/08/20 00:10:05;;;;;;;;;;;31.10;52.70;;;;;;857700;23;865;-85
2022/08/20 00:10:27;;;;;;;;;;;31.10;52.70;;;;;;857378;23;1181;-84
2022/08/20 00:10:48;;;;;;;;;;;31.10;52.60;;;;;;857374;23;501;-83
2022/08/20 00:11:10;;;;;;;;;;;31.10;52.70;;;;;;857992;23;852;-83
2022/08/20 00:11:32;;;;;;;;;;;31.10;52.70;;;;;;857783;23;821;-85
2022/08/20 00:11:53;;;;;;;;;;;31.10;52.70;;;;;;858660;23;856;-86
2022/08/20 00:12:14;;;;;;;;;;;31.10;52.70;;;;;;858915;23;910;-86
2022/08/20 00:12:36;;;;;;;;;;;31.10;52.70;;;;;;858287;23;1215;-85
2022/08/20 00:12:57;;;;;;;;;;;;;;;;;;857577;23;785;-85
2022/08/20 00:13:28;;;;;;;;;;;31.10;52.70;;;;;;857850;23;932;-83
2022/08/20 00:13:50;;;;;;;;;;;31.10;52.50;;;;;;857774;23;895;-84
2022/08/20 00:14:11;;;;;;;;;;;;;;;;;;858088;23;809;-85
2022/08/20 00:14:31;;;;;;;;;;;31.10;52.70;;;;;;858155;23;921;-84
2022/08/20 00:14:52;;;;;;;;;;;31.10;52.80;;;;;;858287;23;816;-84
2022/08/20 00:15:13;;;;;;;;;;;31.10;52.60;;;;;;857806;23;1019;-83
2022/08/20 00:15:34;;;;;;;;;;;;;;;;;;858564;23;1729;-85
2022/08/20 00:15:55;;;;;;;;;;;31.10;52.70;;;;;;858931;23;995;-84
2022/08/20 00:16:16;;;;;;;;;;;31.10;52.50;;;;;;858806;23;1003;-84
2022/08/20 00:16:37;;;;;;;;;;;;;;;;;;858967;23;912;-87
2022/08/20 00:16:58;;;;;;;;;;;31.10;52.50;;;;;;858991;23;845;-85
2022/08/20 00:17:18;;;;;;;;;;;31.00;52.50;;;;;;859227;23;812;-85
2022/08/20 00:17:39;;;;;;;;;;;31.10;52.50;;;;;;858680;23;1896;-83
2022/08/20 00:18:00;;;;;;;;;;;;;;;;;;858095;23;869;-83
2022/08/20 00:18:22;;;;;;;;;;;31.10;52.60;;;;;;858310;23;813;-83
2022/08/20 00:18:43;;;;;;;;;;;31.00;52.60;;;;;;858033;23;865;-85
2022/08/20 00:19:05;;;;;;;;;;;31.10;52.80;;;;;;858323;23;828;-83
2022/08/20 00:19:25;;;;;;;;;;;31.00;52.60;;;;;;857363;23;1755;-86
2022/08/20 00:19:46;;;;;;;;;;;31.10;52.60;;;;;;857781;23;1011;-85
2022/08/20 00:20:08;;;;;;;;;;;31.00;52.60;;;;;;857394;23;782;-85
2022/08/20 00:20:34;;;;;;;;;;;31.10;52.80;;;;;;858194;23;896;-84
2022/08/20 00:20:55;;;;;;;;;;;31.00;52.70;;;;;;857160;23;974;-85
2022/08/20 00:21:17;;;;;;;;;;;31.10;52.90;;;;;;857708;23;1449;-86
2022/08/20 00:21:38;;;;;;;;;;;31.00;52.60;;;;;;856893;23;1359;-83
2022/08/20 00:21:58;;;;;;;;;;;;;;;;;;857163;23;828;-84
2022/08/20 00:22:19;;;;;;;;;;;31.10;52.60;;;;;;857343;23;900;-84
2022/08/20 00:22:40;;;;;;;;;;;31.00;52.70;;;;;;857353;23;816;-84
2022/08/20 00:23:01;;;;;;;;;;;;;;;;;;857141;23;832;-84
2022/08/20 00:23:21;;;;;;;;;;;;;;;;;;857618;23;801;-85
2022/08/20 00:23:42;;;;;;;;;;;;;;;;;;857806;23;774;-83
2022/08/20 00:24:03;;;;;;;;;;;31.00;52.70;;;;;;857755;23;947;-86
2022/08/20 00:24:25;;;;;;;;;;;31.00;52.80;;;;;;857865;23;861;-84
2022/08/20 00:24:45;;;;;;;;;;;;;;;;;;857538;23;868;-86
2022/08/20 00:25:07;;;;;;;;;;;31.00;52.70;;;;;;857594;23;939;-85
2022/08/20 00:25:28;;;;;;;;;;;31.00;52.70;;;;;;857730;23;837;-86
2022/08/20 00:25:49;;;;;;;;;;;31.00;52.70;;;;;;856453;23;955;-86
2022/08/20 00:26:10;;;;;;;;;;;31.00;52.60;;;;;;857203;23;869;-85
2022/08/20 00:26:31;;;;;;;;;;;;;;;;;;857651;23;845;-85
2022/08/20 00:26:51;;;;;;;;;;;31.00;52.70;;;;;;857538;23;856;-85
2022/08/20 00:27:12;;;;;;;;;;;31.00;52.80;;;;;;857452;23;832;-86
2022/08/20 00:27:32;;;;;;;;;;;31.00;52.70;;;;;;857319;23;800;-85
2022/08/20 00:27:54;;;;;;;;;;;31.00;52.60;;;;;;857844;23;809;-86
2022/08/20 00:28:15;;;;;;;;;;;31.00;52.70;;;;;;857376;23;805;-84
2022/08/20 00:28:35;;;;;;;;;;;31.00;52.60;;;;;;857704;23;798;-85
2022/08/20 00:28:56;;;;;;;;;;;31.00;52.80;;;;;;857241;23;786;-86
2022/08/20 00:29:17;;;;;;;;;;;31.00;52.80;;;;;;857348;23;845;-85
2022/08/20 00:29:37;;;;;;;;;;;31.00;52.90;;;;;;857313;23;1046;-89
2022/08/20 00:30:00;;;;;;;;;;;31.00;52.80;;;;;;857197;23;828;-86
2022/08/20 00:30:21;;;;;;;;;;;31.00;52.60;;;;;;857258;23;927;-85
2022/08/20 00:30:43;;;;;;;;;;;31.00;52.70;;;;;;857273;23;952;-85
2022/08/20 00:31:05;;;;;;;;;;;;;;;;;;857072;23;1146;-84
2022/08/20 00:31:26;;;;;;;;;;;31.00;52.80;;;;;;857559;23;793;-85
2022/08/20 00:31:48;;;;;;;;;;;31.00;52.80;;;;;;857311;23;474;-86
2022/08/20 00:32:08;;;;;;;;;;;31.00;52.80;;;;;;857286;23;844;-87
2022/08/20 00:32:29;;;;;;;;;;;31.00;52.80;;;;;;857303;23;824;-85
2022/08/20 00:32:51;;;;;;;;;;;31.00;52.80;;;;;;857194;23;816;-85
2022/08/20 00:33:17;;;;;;;;;;;31.00;52.70;;;;;;857359;23;1137;-87
2022/08/20 00:33:38;;;;;;;;;;;31.00;52.80;;;;;;857186;23;1067;-84
2022/08/20 00:33:59;;;;;;;;;;;;;;;;;;857144;23;2032;-85
2022/08/20 00:34:20;;;;;;;;;;;31.00;52.70;;;;;;857210;23;917;-84
2022/08/20 00:34:41;;;;;;;;;;;;;;;;;;857093;23;1319;-86
2022/08/20 00:35:01;;;;;;;;;;;31.00;52.80;;;;;;856928;23;863;-84
2022/08/20 00:35:22;;;;;;;;;;;;;;;;;;857041;23;852;-84
2022/08/20 00:35:46;;;;;;;;;;;31.00;52.70;;;;;;857042;23;900;-84
2022/08/20 00:36:09;;;;;;;;;;;31.00;52.80;;;;;;856948;23;844;-85
2022/08/20 00:36:30;;;;;;;;;;;;;;;;;;856792;23;773;-85
2022/08/20 00:36:51;;;;;;;;;;;31.00;52.60;;;;;;856959;23;1214;-85
2022/08/20 00:37:11;;;;;;;;;;;;;;;;;;856940;23;805;-85
2022/08/20 00:37:32;;;;;;;;;;;31.00;52.60;;;;;;856791;23;1889;-85
2022/08/20 00:37:53;;;;;;;;;;;31.00;52.80;;;;;;856958;23;892;-84
2022/08/20 00:38:13;;;;;;;;;;;31.00;52.70;;;;;;856805;23;845;-84
2022/08/20 00:38:38;;;;;;;;;;;31.00;52.70;;;;;;856945;23;842;-86
2022/08/20 00:38:59;;;;;;;;;;;31.00;52.60;;;;;;857252;23;810;-85
2022/08/20 00:39:23;;;;;;;;;;;;;;;;;;857326;23;856;-84
2022/08/20 00:39:43;;;;;;;;;;;31.00;52.70;;;;;;857186;23;849;-87
2022/08/20 00:40:05;;;;;;;;;;;31.00;52.70;;;;;;857172;23;1387;-85
2022/08/20 00:40:28;;;;;;;;;;;31.00;52.70;;;;;;857111;23;1266;-85
2022/08/20 00:40:50;;;;;;;;;;;31.00;52.70;;;;;;857239;23;777;-86
2022/08/20 00:41:13;;;;;;;;;;;31.00;52.80;;;;;;857301;23;892;-85
2022/08/20 00:41:33;;;;;;;;;;;31.00;52.70;;;;;;857158;23;798;-84
2022/08/20 00:41:54;;;;;;;;;;;31.00;52.80;;;;;;857148;23;881;-87
2022/08/20 00:42:15;;;;;;;;;;;31.00;52.80;;;;;;857215;23;805;-86
2022/08/20 00:42:39;;;;;;;;;;;31.00;52.80;;;;;;857289;23;888;-86
2022/08/20 00:43:01;;;;;;;;;;;;;;;;;;857226;23;766;-86
2022/08/20 00:43:35;;;;;;;;;;;31.00;52.80;;;;;;857171;23;790;-86
2022/08/20 00:44:11;;;;;;;;;;;31.00;52.80;;;;;;857171;23;730;-85
2022/08/20 00:44:31;;;;;;;;;;;30.90;52.70;;;;;;857164;23;806;-85
2022/08/20 00:44:52;;;;;;;;;;;30.90;52.70;;;;;;857181;23;885;-85
2022/08/20 00:45:13;;;;;;;;;;;31.00;52.80;;;;;;857182;23;782;-84
2022/08/20 00:45:34;;;;;;;;;;;31.00;52.90;;;;;;857089;23;1018;-85
2022/08/20 00:45:56;;;;;;;;;;;30.90;52.80;;;;;;857173;23;809;-85
2022/08/20 00:46:18;;;;;;;;;;;30.90;52.70;;;;;;857108;23;817;-84
2022/08/20 00:46:40;;;;;;;;;;;30.90;52.80;;;;;;857076;23;1382;-86
2022/08/20 00:47:00;;;;;;;;;;;;;;;;;;857161;23;786;-86
2022/08/20 00:47:21;;;;;;;;;;;30.90;52.80;;;;;;857234;23;777;-85
2022/08/20 00:47:42;;;;;;;;;;;30.90;52.90;;;;;;857099;23;889;-85
2022/08/20 00:48:04;;;;;;;;;;;30.90;53.00;;;;;;857214;23;762;-84
2022/08/20 00:48:26;;;;;;;;;;;30.90;53.00;;;;;;857023;23;1356;-84
2022/08/20 00:48:49;;;;;;;;;;;30.90;53.00;;;;;;857191;23;857;-84
2022/08/20 00:49:13;;;;;;;;;;;30.90;53.00;;;;;;856754;23;1664;-85
2022/08/20 00:49:33;;;;;;;;;;;30.90;53.00;;;;;;857216;23;774;-84
2022/08/20 00:49:54;;;;;;;;;;;30.90;53.00;;;;;;856786;23;1366;-85
2022/08/20 00:50:17;;;;;;;;;;;30.90;53.00;;;;;;856921;23;794;-89
2022/08/20 00:50:38;;;;;;;;;;;30.90;53.10;;;;;;856915;23;836;-84
2022/08/20 00:50:59;;;;;;;;;;;;;;;;;;856900;23;821;-84
2022/08/20 00:51:20;;;;;;;;;;;;;;;;;;856921;23;785;-85
2022/08/20 00:51:52;;;;;;;;;;;30.90;52.80;;;;;;856863;23;781;-86
2022/08/20 00:52:13;;;;;;;;;;;;;;;;;;857002;23;1451;-84
2022/08/20 00:52:34;;;;;;;;;;;30.90;53.00;;;;;;857126;23;829;-85
2022/08/20 00:52:54;;;;;;;;;;;30.90;53.00;;;;;;857107;23;943;-85
2022/08/20 00:53:16;;;;;;;;;;;30.90;52.90;;;;;;857319;23;744;-84
2022/08/20 00:53:37;;;;;;;;;;;30.90;52.90;;;;;;857118;23;844;-84
2022/08/20 00:54:01;;;;;;;;;;;30.90;53.00;;;;;;857175;23;767;-87
2022/08/20 00:54:28;;;;;;;;;;;30.90;52.90;;;;;;857099;23;864;-86
2022/08/20 00:54:52;;;;;;;;;;;30.90;52.90;;;;;;857276;23;773;-88
2022/08/20 00:55:13;;;;;;;;;;;30.90;53.00;;;;;;857240;23;800;-87
2022/08/20 00:55:34;;;;;;;;;;;30.90;53.00;;;;;;857331;23;793;-85
2022/08/20 00:55:55;;;;;;;;;;;30.90;52.90;;;;;;857147;23;911;-87
2022/08/20 00:56:16;;;;;;;;;;;30.90;52.90;;;;;;857176;23;860;-86
2022/08/20 00:56:37;;;;;;;;;;;;;;;;;;859386;23;1223;-86
2022/08/20 00:57:02;;;;;;;;;;;30.90;53.00;;;;;;861216;23;1092;-85
2022/08/20 00:57:53;;;;;;;;;;;30.90;53.10;;;;;;861213;23;1896;-85
2022/08/20 00:58:14;;;;;;;;;;;30.80;53.00;;;;;;852713;23;809;-85
2022/08/20 00:58:36;;;;;;;;;;;30.80;52.90;;;;;;852673;23;1100;-85
2022/08/20 00:58:56;;;;;;;;;;;30.80;52.90;;;;;;852546;23;803;-85
2022/08/20 00:59:18;;;;;;;;;;;;;;;;;;852498;23;932;-87
2022/08/20 00:59:40;;;;;;;;;;;;;;;;;;848375;23;880;-85
2022/08/20 01:00:01;;;;;;;;;;;;;;;;;;848548;23;960;-86
2022/08/20 01:00:27;;;;;;;;;;;30.80;52.90;;;;;;848577;23;845;-85
2022/08/20 01:00:48;;;;;;;;;;;30.80;52.90;;;;;;848775;23;766;-85
2022/08/20 01:01:09;;;;;;;;;;;30.80;52.90;;;;;;848681;23;842;-88
2022/08/20 01:01:33;;;;;;;;;;;30.80;52.90;;;;;;850642;23;885;-88
2022/08/20 01:01:54;;;;;;;;;;;30.80;53.00;;;;;;852873;23;778;-85
2022/08/20 01:02:16;;;;;;;;;;;30.80;52.90;;;;;;852931;23;789;-86
2022/08/20 01:02:37;;;;;;;;;;;30.80;52.90;;;;;;853002;23;773;-85
2022/08/20 01:02:59;;;;;;;;;;;30.80;53.00;;;;;;848580;23;1300;-85
2022/08/20 01:03:20;;;;;;;;;;;30.80;53.00;;;;;;848806;23;1072;-87
2022/08/20 01:03:41;;;;;;;;;;;;;;;;;;848615;23;839;-86
2022/08/20 01:04:01;;;;;;;;;;;30.80;53.00;;;;;;848787;23;809;-85
2022/08/20 01:04:23;;;;;;;;;;;;;;;;;;848802;23;917;-85
2022/08/20 01:04:53;;;;;;;;;;;;;;;;;;845790;23;798;-87
2022/08/20 01:05:14;;;;;;;;;;;30.80;53.20;;;;;;844692;23;1464;-87
2022/08/20 01:05:38;;;;;;;;;;;30.80;53.20;;;;;;844565;23;762;-86
2022/08/20 01:05:59;;;;;;;;;;;30.80;53.20;;;;;;844685;23;901;-88
2022/08/20 01:06:20;;;;;;;;;;;30.80;53.30;;;;;;844692;23;821;-88
2022/08/20 01:06:41;;;;;;;;;;;;;;;;;;847683;23;790;-85
2022/08/20 01:07:04;;;;;;;;;;;30.80;53.30;;;;;;850104;23;802;-84
2022/08/20 01:07:33;;;;;;;;;;;30.80;53.30;;;;;;852963;23;758;-86
2022/08/20 01:07:54;;;;;;;;;;;30.80;53.30;;;;;;852929;23;876;-85
2022/08/20 01:08:15;;;;;;;;;;;30.80;53.40;;;;;;852863;23;762;-85
2022/08/20 01:08:37;;;;;;;;;;;30.80;53.30;;;;;;853116;23;971;-87
2022/08/20 01:09:00;;;;;;;;;;;30.70;53.30;;;;;;853161;23;750;-87
2022/08/20 01:09:22;;;;;;;;;;;30.80;53.40;;;;;;853086;23;805;-85
2022/08/20 01:09:43;;;;;;;;;;;30.80;53.40;;;;;;853093;23;988;-86
2022/08/20 01:10:06;;;;;;;;;;;30.70;53.40;;;;;;848622;23;852;-85
2022/08/20 01:10:31;;;;;;;;;;;30.80;53.40;;;;;;848804;23;782;-84
2022/08/20 01:10:58;;;;;;;;;;;30.80;53.40;;;;;;844543;23;861;-85
2022/08/20 01:11:21;;;;;;;;;;;30.80;53.50;;;;;;844998;23;861;-85
2022/08/20 01:11:41;;;;;;;;;;;30.80;53.30;;;;;;845085;23;775;-85
2022/08/20 01:12:02;;;;;;;;;;;30.80;53.30;;;;;;848218;23;798;-85
2022/08/20 01:12:24;;;;;;;;;;;30.80;53.30;;;;;;848736;23;790;-85
2022/08/20 01:12:45;;;;;;;;;;;30.80;53.30;;;;;;851106;23;1153;-87
2022/08/20 01:13:08;;;;;;;;;;;30.70;53.30;;;;;;853047;23;865;-85
2022/08/20 01:13:30;;;;;;;;;;;30.70;53.30;;;;;;853084;23;856;-89
2022/08/20 01:13:51;;;;;;;;;;;;;;;;;;852910;23;920;-86
2022/08/20 01:14:54;;;;;;;;;;;30.70;53.30;;;;;;840795;23;1267;-86
2022/08/20 01:14:58;;;;;;;;;;;30.80;53.30;;;;;;852877;23;797;-86
2022/08/20 01:15:15;;;;;;;;;;;;;;;;;;850324;23;1603;-86
2022/08/20 01:15:41;;;;;;;;;;;30.70;53.40;;;;;;853044;23;790;-85
2022/08/20 01:16:02;;;;;;;;;;;30.70;53.30;;;;;;852966;23;765;-86
2022/08/20 01:16:26;;;;;;;;;;;30.70;53.20;;;;;;852866;23;1011;-85
2022/08/20 01:16:48;;;;;;;;;;;30.80;53.30;;;;;;848612;23;1340;-85
2022/08/20 01:17:13;;;;;;;;;;;30.80;53.30;;;;;;848826;23;818;-85
2022/08/20 01:17:35;;;;;;;;;;;30.80;53.30;;;;;;844619;23;1936;-88
2022/08/20 01:17:59;;;;;;;;;;;30.70;53.10;;;;;;844809;23;810;-86
2022/08/20 01:18:23;;;;;;;;;;;30.80;53.20;;;;;;844862;23;839;-85
2022/08/20 01:18:45;;;;;;;;;;;30.80;53.20;;;;;;847911;23;826;-84
2022/08/20 01:19:07;;;;;;;;;;;30.70;53.30;;;;;;848777;23;829;-85
2022/08/20 01:19:32;;;;;;;;;;;30.70;53.30;;;;;;851445;23;754;-87
2022/08/20 01:20:00;;;;;;;;;;;30.70;53.30;;;;;;852844;23;912;-85
2022/08/20 01:20:21;;;;;;;;;;;30.70;53.30;;;;;;852837;23;801;-87
2022/08/20 01:20:43;;;;;;;;;;;30.70;53.40;;;;;;848596;23;1093;-83
2022/08/20 01:21:04;;;;;;;;;;;30.70;53.40;;;;;;848748;23;888;-84
2022/08/20 01:21:32;;;;;;;;;;;30.70;53.40;;;;;;848816;23;909;-83
2022/08/20 01:21:53;;;;;;;;;;;30.70;53.30;;;;;;848650;23;774;-85
2022/08/20 01:23:48;;;;;;;;;;;30.70;53.30;;;;;;852827;23;572;-83
2022/08/20 01:24:38;;;;;;;;;;;30.70;53.30;;;;;;852893;23;846;-83
2022/08/20 01:25:06;;;;;;;;;;;30.70;53.40;;;;;;844695;23;858;-83
2022/08/20 01:25:36;;;;;;;;;;;30.70;53.40;;;;;;844497;23;1165;-83
2022/08/20 01:25:59;;;;;;;;;;;30.60;53.30;;;;;;844651;23;909;-83
2022/08/20 01:26:22;;;;;;;;;;;30.70;53.30;;;;;;844637;23;798;-83
2022/08/20 01:26:44;;;;;;;;;;;30.70;53.40;;;;;;840691;23;811;-85
2022/08/20 01:27:05;;;;;;;;;;;30.70;53.30;;;;;;840683;23;944;-86
2022/08/20 01:27:26;;;;;;;;;;;30.70;53.30;;;;;;840624;23;928;-84
2022/08/20 01:27:47;;;;;;;;;;;;;;;;;;840416;23;948;-85
2022/08/20 01:28:09;;;;;;;;;;;30.70;53.20;;;;;;840740;23;873;-85
2022/08/20 01:28:42;;;;;;;;;;;30.70;53.20;;;;;;841729;23;778;-86
2022/08/20 01:29:06;;;;;;;;;;;30.70;53.20;;;;;;844560;23;1190;-84
2022/08/20 01:29:33;;;;;;;;;;;30.70;53.20;;;;;;844685;23;758;-85
2022/08/20 01:29:53;;;;;;;;;;;30.70;53.10;;;;;;844594;23;837;-84
2022/08/20 01:30:14;;;;;;;;;;;30.70;53.10;;;;;;844586;23;972;-88
2022/08/20 01:30:36;;;;;;;;;;;30.70;53.20;;;;;;844605;23;922;-85
2022/08/20 01:30:56;;;;;;;;;;;30.70;53.20;;;;;;844681;23;810;-86
2022/08/20 01:31:24;;;;;;;;;;;30.70;53.20;;;;;;844687;23;833;-85
2022/08/20 01:31:45;;;;;;;;;;;30.70;53.10;;;;;;844721;23;763;-84
2022/08/20 01:32:06;;;;;;;;;;;30.70;53.00;;;;;;840013;23;1196;-84
2022/08/20 01:32:27;;;;;;;;;;;;;;;;;;840632;23;878;-84
2022/08/20 01:32:47;;;;;;;;;;;30.70;53.10;;;;;;840499;23;1587;-85
2022/08/20 01:33:08;;;;;;;;;;;30.70;53.10;;;;;;840655;23;905;-84
2022/08/20 01:33:28;;;;;;;;;;;30.70;53.10;;;;;;840713;23;799;-85
2022/08/20 01:33:50;;;;;;;;;;;30.70;53.10;;;;;;840497;23;1442;-86
2022/08/20 01:34:11;;;;;;;;;;;;;;;;;;840613;23;894;-86
2022/08/20 01:34:32;;;;;;;;;;;30.70;52.90;;;;;;841227;23;906;-85
2022/08/20 01:34:53;;;;;;;;;;;30.70;52.90;;;;;;844676;23;901;-85
2022/08/20 01:35:18;;;;;;;;;;;30.70;52.90;;;;;;844658;23;794;-84
2022/08/20 01:35:41;;;;;;;;;;;30.70;52.90;;;;;;844612;23;1020;-84
2022/08/20 01:36:02;;;;;;;;;;;30.70;52.90;;;;;;844692;23;1317;-84
2022/08/20 01:36:32;;;;;;;;;;;30.70;52.90;;;;;;844585;23;950;-84
2022/08/20 01:36:54;;;;;;;;;;;30.70;52.80;;;;;;844513;23;937;-84
2022/08/20 01:37:14;;;;;;;;;;;30.70;52.70;;;;;;844768;23;865;-86
2022/08/20 01:37:35;;;;;;;;;;;30.70;52.80;;;;;;844532;23;1931;-86
2022/08/20 01:37:56;;;;;;;;;;;30.70;52.90;;;;;;844680;23;841;-86
2022/08/20 01:38:16;;;;;;;;;;;30.70;52.90;;;;;;840452;23;1088;-84
2022/08/20 01:38:37;;;;;;;;;;;30.70;52.90;;;;;;840963;23;1399;-85
2022/08/20 01:38:58;;;;;;;;;;;;;;;;;;840596;23;941;-87
2022/08/20 01:39:20;;;;;;;;;;;30.70;52.80;;;;;;840624;23;889;-85
2022/08/20 01:39:41;;;;;;;;;;;;;;;;;;840637;23;751;-84
2022/08/20 01:40:03;;;;;;;;;;;30.70;52.80;;;;;;841544;23;835;-84
2022/08/20 01:40:34;;;;;;;;;;;30.70;52.80;;;;;;840589;23;779;-86
2022/08/20 01:40:55;;;;;;;;;;;30.70;52.80;;;;;;840661;23;813;-85
2022/08/20 01:41:29;;;;;;;;;;;30.70;52.80;;;;;;840693;23;830;-85
2022/08/20 01:42:07;;;;;;;;;;;30.70;52.70;;;;;;840548;23;787;-85
2022/08/20 01:42:36;;;;;;;;;;;30.70;52.70;;;;;;840612;23;778;-85
2022/08/20 01:42:57;;;;;;;;;;;30.70;52.70;;;;;;840552;23;1089;-85
2022/08/20 01:43:18;;;;;;;;;;;30.70;52.60;;;;;;840550;23;802;-85
2022/08/20 01:43:40;;;;;;;;;;;30.70;52.60;;;;;;842142;23;798;-86
2022/08/20 01:44:01;;;;;;;;;;;;;;;;;;844710;23;838;-88
2022/08/20 01:44:22;;;;;;;;;;;30.70;52.60;;;;;;844785;23;917;-85
2022/08/20 01:44:44;;;;;;;;;;;30.70;52.60;;;;;;844635;23;810;-85
2022/08/20 01:45:05;;;;;;;;;;;;;;;;;;844522;23;831;-85
2022/08/20 01:45:27;;;;;;;;;;;30.70;52.60;;;;;;844654;23;825;-84
2022/08/20 01:45:47;;;;;;;;;;;30.70;52.50;;;;;;844635;23;841;-85
2022/08/20 01:46:09;;;;;;;;;;;30.60;52.40;;;;;;844588;23;754;-84
2022/08/20 01:46:33;;;;;;;;;;;30.70;52.60;;;;;;844607;23;917;-85
2022/08/20 01:46:56;;;;;;;;;;;30.70;52.60;;;;;;841037;23;1113;-86
2022/08/20 01:47:18;;;;;;;;;;;30.70;52.60;;;;;;840429;23;1167;-85
2022/08/20 01:47:39;;;;;;;;;;;30.70;52.60;;;;;;840866;23;1280;-84
2022/08/20 01:47:59;;;;;;;;;;;30.70;52.50;;;;;;840686;23;770;-84
2022/08/20 01:48:20;;;;;;;;;;;;;;;;;;840842;23;782;-85
2022/08/20 01:48:42;;;;;;;;;;;30.70;52.60;;;;;;840576;23;841;-83
2022/08/20 01:49:08;;;;;;;;;;;30.70;52.60;;;;;;837601;23;806;-84
2022/08/20 01:49:29;;;;;;;;;;;;;;;;;;836524;23;1540;-85
2022/08/20 01:49:53;;;;;;;;;;;30.70;52.60;;;;;;836576;23;839;-85
2022/08/20 01:50:21;;;;;;;;;;;30.70;52.50;;;;;;836581;23;842;-85
2022/08/20 01:50:44;;;;;;;;;;;30.70;52.50;;;;;;836603;23;853;-85
2022/08/20 01:51:05;;;;;;;;;;;30.70;52.50;;;;;;840578;23;885;-85
2022/08/20 01:51:27;;;;;;;;;;;30.70;52.50;;;;;;843861;23;859;-84
2022/08/20 01:51:48;;;;;;;;;;;;;;;;;;844507;23;846;-84
2022/08/20 01:52:10;;;;;;;;;;;30.70;52.40;;;;;;844677;23;921;-84
2022/08/20 01:52:31;;;;;;;;;;;;;;;;;;844701;23;838;-85
2022/08/20 01:52:55;;;;;;;;;;;30.70;52.40;;;;;;844653;23;921;-85
2022/08/20 01:53:29;;;;;;;;;;;30.70;52.50;;;;;;840511;23;1097;-84
2022/08/20 01:53:51;;;;;;;;;;;30.70;52.40;;;;;;840449;23;906;-84
2022/08/20 01:54:12;;;;;;;;;;;30.70;52.40;;;;;;841958;23;838;-86
2022/08/20 01:54:33;;;;;;;;;;;;;;;;;;840682;23;799;-84
2022/08/20 01:54:54;;;;;;;;;;;30.70;52.40;;;;;;840683;23;818;-84
2022/08/20 01:55:15;;;;;;;;;;;;;;;;;;840615;23;774;-84
2022/08/20 01:55:36;;;;;;;;;;;30.70;52.30;;;;;;841346;23;1228;-85
2022/08/20 01:55:57;;;;;;;;;;;30.70;52.30;;;;;;844629;23;1076;-85
2022/08/20 01:56:19;;;;;;;;;;;30.70;52.30;;;;;;844615;23;783;-83
2022/08/20 01:56:40;;;;;;;;;;;;;;;;;;847636;23;1279;-84
2022/08/20 01:57:04;;;;;;;;;;;30.70;52.30;;;;;;848702;23;834;-85
2022/08/20 01:57:25;;;;;;;;;;;30.70;52.30;;;;;;848712;23;1901;-84
2022/08/20 01:57:47;;;;;;;;;;;30.70;52.20;;;;;;844041;23;1257;-84
2022/08/20 01:58:08;;;;;;;;;;;30.70;52.30;;;;;;844660;23;715;-84
2022/08/20 01:58:28;;;;;;;;;;;30.70;52.30;;;;;;844632;23;882;-84
2022/08/20 01:58:53;;;;;;;;;;;30.70;52.30;;;;;;844620;23;893;-86
2022/08/20 01:59:14;;;;;;;;;;;30.70;52.30;;;;;;844675;23;845;-88
2022/08/20 01:59:34;;;;;;;;;;;30.70;52.20;;;;;;846179;23;795;-84
2022/08/20 01:59:55;;;;;;;;;;;30.70;52.30;;;;;;848793;23;762;-84
2022/08/20 02:00:17;;;;;;;;;;;30.70;52.20;;;;;;844541;23;1191;-84
2022/08/20 02:00:38;;;;;;;;;;;30.70;52.10;;;;;;844479;23;1040;-83
2022/08/20 02:00:59;;;;;;;;;;;30.70;52.20;;;;;;844036;23;1329;-84
2022/08/20 02:01:22;;;;;;;;;;;30.70;52.20;;;;;;844711;23;786;-84
2022/08/20 02:01:43;;;;;;;;;;;30.70;52.30;;;;;;844585;23;778;-85
2022/08/20 02:02:05;;;;;;;;;;;30.70;52.20;;;;;;844648;23;793;-84
2022/08/20 02:02:26;;;;;;;;;;;30.60;52.10;;;;;;851022;23;1113;-84
2022/08/20 02:02:48;;;;;;;;;;;30.70;52.20;;;;;;858740;23;844;-84
2022/08/20 02:03:08;;;;;;;;;;;30.70;52.10;;;;;;861472;23;798;-85
2022/08/20 02:03:29;;;;;;;;;;;30.70;52.20;;;;;;861333;23;854;-84
2022/08/20 02:03:50;;;;;;;;;;;30.70;52.20;;;;;;861393;23;785;-84
2022/08/20 02:04:11;;;;;;;;;;;;;;;;;;861567;23;892;-84
2022/08/20 02:04:32;;;;;;;;;;;30.70;52.10;;;;;;861358;23;932;-85
2022/08/20 02:04:52;;;;;;;;;;;30.70;52.10;;;;;;861430;23;824;-84
2022/08/20 02:05:13;;;;;;;;;;;30.70;52.10;;;;;;861543;23;785;-84
2022/08/20 02:05:34;;;;;;;;;;;30.70;52.20;;;;;;861447;23;873;-85
2022/08/20 02:05:55;;;;;;;;;;;30.70;52.10;;;;;;861658;23;825;-89
2022/08/20 02:06:16;;;;;;;;;;;30.70;52.20;;;;;;861958;23;778;-89
2022/08/20 02:06:39;;;;;;;;;;;30.70;52.10;;;;;;861985;23;857;-90
2022/08/20 02:07:03;;;;;;;;;;;30.70;52.00;;;;;;861988;23;848;-90
2022/08/20 02:07:24;;;;;;;;;;;;;;;;;;862067;23;827;-90
2022/08/20 02:07:45;;;;;;;;;;;30.70;52.10;;;;;;862062;23;825;-90
2022/08/20 02:08:05;;;;;;;;;;;30.70;52.10;;;;;;862195;23;957;-90
2022/08/20 02:08:26;;;;;;;;;;;30.70;52.00;;;;;;856955;23;884;-89
2022/08/20 02:08:47;;;;;;;;;;;;;;;;;;857687;23;873;-90
2022/08/20 02:09:08;;;;;;;;;;;30.70;52.10;;;;;;857570;23;1042;-90
2022/08/20 02:09:30;;;;;;;;;;;30.70;52.00;;;;;;857826;23;809;-90
2022/08/20 02:09:51;;;;;;;;;;;30.70;52.00;;;;;;857708;23;885;-89
2022/08/20 02:10:13;;;;;;;;;;;30.70;52.00;;;;;;858664;23;806;-88
2022/08/20 02:10:34;;;;;;;;;;;30.70;52.00;;;;;;861763;23;887;-88
2022/08/20 02:10:54;;;;;;;;;;;30.60;51.90;;;;;;861729;23;913;-89
2022/08/20 02:11:15;;;;;;;;;;;30.70;52.00;;;;;;862012;23;971;-90
2022/08/20 02:11:36;;;;;;;;;;;30.70;52.00;;;;;;861642;23;872;-90
2022/08/20 02:11:57;;;;;;;;;;;30.70;52.00;;;;;;861753;23;908;-88
2022/08/20 02:12:17;;;;;;;;;;;30.70;52.00;;;;;;861906;23;829;-90
2022/08/20 02:12:38;;;;;;;;;;;;;;;;;;862014;23;885;-90
2022/08/20 02:12:59;;;;;;;;;;;;;;;;;;862101;23;914;-88
2022/08/20 02:13:20;;;;;;;;;;;30.70;51.90;;;;;;862222;23;905;-90
2022/08/20 02:13:41;;;;;;;;;;;30.70;51.90;;;;;;862208;23;798;-89
2022/08/20 02:14:04;;;;;;;;;;;30.70;51.90;;;;;;862036;23;785;-90
2022/08/20 02:14:25;;;;;;;;;;;30.70;51.90;;;;;;857327;23;1644;-90
2022/08/20 02:14:47;;;;;;;;;;;30.60;51.80;;;;;;857451;23;1910;-91
2022/08/20 02:15:09;;;;;;;;;;;30.70;51.90;;;;;;857558;23;769;-89
2022/08/20 02:15:30;;;;;;;;;;;;;;;;;;857794;23;898;-89
2022/08/20 02:15:51;;;;;;;;;;;;;;;;;;857825;23;832;-87
2022/08/20 02:16:11;;;;;;;;;;;30.70;52.00;;;;;;858859;23;935;-89
2022/08/20 02:16:35;;;;;;;;;;;30.60;51.90;;;;;;862165;23;782;-89
2022/08/20 02:16:57;;;;;;;;;;;30.60;51.90;;;;;;861900;23;859;-90
2022/08/20 02:17:21;;;;;;;;;;;30.60;51.80;;;;;;862136;23;813;-91
2022/08/20 02:17:42;;;;;;;;;;;30.60;51.90;;;;;;861458;23;1892;-91
2022/08/20 02:18:04;;;;;;;;;;;30.70;52.00;;;;;;861921;23;852;-90
2022/08/20 02:18:25;;;;;;;;;;;30.70;52.00;;;;;;861611;23;920;-90
2022/08/20 02:18:46;;;;;;;;;;;30.70;52.00;;;;;;862115;23;801;-90
2022/08/20 02:19:12;;;;;;;;;;;30.60;51.90;;;;;;862041;23;813;-88
2022/08/20 02:19:53;;;;;;;;;;;30.70;51.80;;;;;;861935;23;798;-90
2022/08/20 02:20:18;;;;;;;;;;;30.60;51.80;;;;;;860975;23;1581;-89